Adelphi, Ohio
Current Conditions -  °F | °C
As of 8:54 PM on Friday 31 Oct 2014 (Local Time) from KRZT Reporting Station
Drizzle Drizzle  
Wind Chill: 33°   Ceiling: 1700
Heat Index: 39°   Visibility: 10mi
Dew Point: 37°   Wind: 9mph
Humidity: 93%   Direction: 350°N
Pressure: 29.92"   Gusts: NA
Location:  39.47°N, 82.75°W
Report Text: KRZT 010054Z AUTO 35008KT 10SM DZ OVC017 04/03 A2992 RMK AO2 P0001
Loading
Personal Weather Stations






























Interactive Weather Map
Tropical Storm Tracking
New forecast layout! Learn more

10-Day Weather Forecast

Advertisements
Track Severe Weather on mobile